sensor_id;sensor_type;location;lat;lon;timestamp;pressure;altitude;pressure_sealevel;temperature;humidity
68197;BME280;55019;49.382;11.358;2023-03-05T00:01:30;96743.53;;;0.21;89.46
68197;BME280;55019;49.382;11.358;2023-03-05T00:04:00;96747.78;;;0.20;89.52
68197;BME280;55019;49.382;11.358;2023-03-05T00:06:30;96749.28;;;0.49;88.90
68197;BME280;55019;49.382;11.358;2023-03-05T00:08:56;96747.66;;;0.48;88.56
68197;BME280;55019;49.382;11.358;2023-03-05T00:11:24;96752.75;;;0.48;88.39
68197;BME280;55019;49.382;11.358;2023-03-05T00:13:52;96743.13;;;0.27;89.07
68197;BME280;55019;49.382;11.358;2023-03-05T00:16:18;96746.00;;;0.35;88.61
68197;BME280;55019;49.382;11.358;2023-03-05T00:18:44;96749.41;;;0.21;89.54
68197;BME280;55019;49.382;11.358;2023-03-05T00:21:20;96745.09;;;0.09;90.36
68197;BME280;55019;49.382;11.358;2023-03-05T00:23:46;96739.91;;;0.37;89.60
68197;BME280;55019;49.382;11.358;2023-03-05T00:26:11;96739.28;;;0.34;88.99
68197;BME280;55019;49.382;11.358;2023-03-05T00:28:38;96741.16;;;0.44;89.42
68197;BME280;55019;49.382;11.358;2023-03-05T00:31:03;96725.28;;;0.14;90.14
68197;BME280;55019;49.382;11.358;2023-03-05T00:33:30;96735.41;;;0.28;90.46
68197;BME280;55019;49.382;11.358;2023-03-05T00:35:55;96732.31;;;0.11;91.28
68197;BME280;55019;49.382;11.358;2023-03-05T00:38:21;96727.13;;;0.12;91.57
68197;BME280;55019;49.382;11.358;2023-03-05T00:40:49;96725.78;;;0.33;91.67
68197;BME280;55019;49.382;11.358;2023-03-05T00:43:15;96720.91;;;0.30;91.22
68197;BME280;55019;49.382;11.358;2023-03-05T00:45:41;96718.53;;;0.27;90.99
68197;BME280;55019;49.382;11.358;2023-03-05T00:48:06;96715.72;;;0.05;91.92
68197;BME280;55019;49.382;11.358;2023-03-05T00:50:32;96722.00;;;0.26;92.17
68197;BME280;55019;49.382;11.358;2023-03-05T00:52:58;96719.81;;;0.20;92.05
68197;BME280;55019;49.382;11.358;2023-03-05T00:55:24;96719.63;;;0.23;92.14
68197;BME280;55019;49.382;11.358;2023-03-05T00:57:50;96714.84;;;0.19;92.65
68197;BME280;55019;49.382;11.358;2023-03-05T01:00:16;96711.69;;;0.15;92.49
68197;BME280;55019;49.382;11.358;2023-03-05T01:02:41;96714.53;;;0.23;91.97
68197;BME280;55019;49.382;11.358;2023-03-05T01:05:10;96709.47;;;0.23;92.29
68197;BME280;55019;49.382;11.358;2023-03-05T01:07:36;96702.88;;;0.21;92.99
68197;BME280;55019;49.382;11.358;2023-03-05T01:10:04;96706.34;;;0.32;92.55
68197;BME280;55019;49.382;11.358;2023-03-05T01:12:30;96707.16;;;0.33;92.71
68197;BME280;55019;49.382;11.358;2023-03-05T01:14:55;96700.56;;;0.30;93.26
68197;BME280;55019;49.382;11.358;2023-03-05T01:17:21;96703.69;;;0.34;92.92
68197;BME280;55019;49.382;11.358;2023-03-05T01:19:47;96687.34;;;0.38;92.84
68197;BME280;55019;49.382;11.358;2023-03-05T01:22:13;96688.06;;;0.27;93.13
68197;BME280;55019;49.382;11.358;2023-03-05T01:24:38;96688.09;;;0.13;94.19
68197;BME280;55019;49.382;11.358;2023-03-05T01:27:04;96688.00;;;0.15;94.75
68197;BME280;55019;49.382;11.358;2023-03-05T01:29:30;96683.53;;;0.06;95.44
68197;BME280;55019;49.382;11.358;2023-03-05T01:31:55;96683.94;;;0.12;95.31
68197;BME280;55019;49.382;11.358;2023-03-05T01:34:21;96684.63;;;0.02;96.44
68197;BME280;55019;49.382;11.358;2023-03-05T01:36:47;96689.13;;;0.11;96.38
68197;BME280;55019;49.382;11.358;2023-03-05T01:39:15;96683.44;;;0.20;96.26
68197;BME280;55019;49.382;11.358;2023-03-05T01:41:41;96680.50;;;0.26;96.17
68197;BME280;55019;49.382;11.358;2023-03-05T01:44:27;96678.06;;;0.24;95.98
68197;BME280;55019;49.382;11.358;2023-03-05T01:46:53;96673.72;;;0.26;96.09
68197;BME280;55019;49.382;11.358;2023-03-05T01:55:01;96669.53;;;0.25;96.36
68197;BME280;55019;49.382;11.358;2023-03-05T01:57:31;96669.16;;;0.31;96.36
68197;BME280;55019;49.382;11.358;2023-03-05T02:00:07;96668.31;;;0.31;96.96
68197;BME280;55019;49.382;11.358;2023-03-05T02:02:39;96671.53;;;0.20;97.46
68197;BME280;55019;49.382;11.358;2023-03-05T02:05:09;96668.09;;;0.21;97.74
68197;BME280;55019;49.382;11.358;2023-03-05T02:07:35;96667.81;;;0.26;97.10
68197;BME280;55019;49.382;11.358;2023-03-05T02:10:26;96659.34;;;0.25;97.80
68197;BME280;55019;49.382;11.358;2023-03-05T02:12:55;96642.81;;;0.32;97.65
68197;BME280;55019;49.382;11.358;2023-03-05T02:15:22;96650.25;;;0.35;97.59
68197;BME280;55019;49.382;11.358;2023-03-05T02:17:48;96644.13;;;0.38;97.95
68197;BME280;55019;49.382;11.358;2023-03-05T02:20:23;96629.50;;;0.41;96.77
68197;BME280;55019;49.382;11.358;2023-03-05T02:22:50;96640.09;;;0.35;97.67
68197;BME280;55019;49.382;11.358;2023-03-05T02:25:25;96641.09;;;0.45;97.18
68197;BME280;55019;49.382;11.358;2023-03-05T02:28:07;96640.91;;;0.48;97.39
68197;BME280;55019;49.382;11.358;2023-03-05T02:30:33;96637.44;;;0.49;97.01
68197;BME280;55019;49.382;11.358;2023-03-05T02:33:00;96642.94;;;0.56;97.43
68197;BME280;55019;49.382;11.358;2023-03-05T02:35:26;96639.59;;;0.55;97.13
68197;BME280;55019;49.382;11.358;2023-03-05T02:37:52;96632.97;;;0.65;96.92
68197;BME280;55019;49.382;11.358;2023-03-05T02:40:18;96617.53;;;0.56;96.02
68197;BME280;55019;49.382;11.358;2023-03-05T02:42:44;96614.56;;;0.37;97.36
68197;BME280;55019;49.382;11.358;2023-03-05T02:45:12;96624.81;;;0.48;97.83
68197;BME280;55019;49.382;11.358;2023-03-05T02:47:38;96628.50;;;0.56;97.95
68197;BME280;55019;49.382;11.358;2023-03-05T02:50:06;96607.84;;;0.73;96.59
68197;BME280;55019;49.382;11.358;2023-03-05T02:52:33;96610.91;;;0.78;96.31
68197;BME280;55019;49.382;11.358;2023-03-05T02:54:59;96600.31;;;0.59;96.64
68197;BME280;55019;49.382;11.358;2023-03-05T02:57:27;96600.84;;;0.64;96.66
68197;BME280;55019;49.382;11.358;2023-03-05T02:59:53;96596.47;;;0.54;96.79
68197;BME280;55019;49.382;11.358;2023-03-05T03:02:19;96602.16;;;0.57;97.03
68197;BME280;55019;49.382;11.358;2023-03-05T03:04:45;96606.31;;;0.46;97.05
68197;BME280;55019;49.382;11.358;2023-03-05T03:07:11;96587.31;;;0.39;97.62
68197;BME280;55019;49.382;11.358;2023-03-05T03:09:37;96603.06;;;0.56;98.17
68197;BME280;55019;49.382;11.358;2023-03-05T03:12:05;96597.78;;;0.59;97.09
68197;BME280;55019;49.382;11.358;2023-03-05T03:14:34;96597.00;;;0.59;96.86
68197;BME280;55019;49.382;11.358;2023-03-05T03:17:17;96592.50;;;0.62;97.28
68197;BME280;55019;49.382;11.358;2023-03-05T03:19:43;96586.19;;;0.68;96.88
68197;BME280;55019;49.382;11.358;2023-03-05T03:22:11;96585.19;;;0.45;97.48
68197;BME280;55019;49.382;11.358;2023-03-05T03:24:38;96585.66;;;0.75;96.66
68197;BME280;55019;49.382;11.358;2023-03-05T03:27:04;96579.41;;;0.56;96.24
68197;BME280;55019;49.382;11.358;2023-03-05T03:29:30;96585.41;;;0.55;97.10
68197;BME280;55019;49.382;11.358;2023-03-05T03:31:56;96576.22;;;0.52;96.53
68197;BME280;55019;49.382;11.358;2023-03-05T03:34:22;96565.16;;;0.53;96.48
68197;BME280;55019;49.382;11.358;2023-03-05T03:36:49;96577.66;;;0.56;96.48
68197;BME280;55019;49.382;11.358;2023-03-05T03:39:15;96579.19;;;0.46;96.66
68197;BME280;55019;49.382;11.358;2023-03-05T03:41:46;96586.50;;;0.38;97.15
68197;BME280;55019;49.382;11.358;2023-03-05T03:44:13;96583.75;;;0.41;97.22
68197;BME280;55019;49.382;11.358;2023-03-05T03:46:39;96577.66;;;0.56;96.68
68197;BME280;55019;49.382;11.358;2023-03-05T03:49:06;96575.72;;;0.47;97.05
68197;BME280;55019;49.382;11.358;2023-03-05T03:51:35;96574.81;;;0.36;96.78
68197;BME280;55019;49.382;11.358;2023-03-05T03:54:00;96572.78;;;0.53;96.41
68197;BME280;55019;49.382;11.358;2023-03-05T03:56:26;96564.03;;;0.57;95.09
68197;BME280;55019;49.382;11.358;2023-03-05T03:58:52;96574.59;;;0.51;94.96
68197;BME280;55019;49.382;11.358;2023-03-05T04:01:19;96565.66;;;0.46;95.88
68197;BME280;55019;49.382;11.358;2023-03-05T04:03:45;96559.78;;;0.45;95.59
68197;BME280;55019;49.382;11.358;2023-03-05T04:06:11;96564.44;;;0.39;96.45
68197;BME280;55019;49.382;11.358;2023-03-05T04:08:37;96549.28;;;0.50;95.87
68197;BME280;55019;49.382;11.358;2023-03-05T04:11:03;96550.81;;;0.52;95.16
68197;BME280;55019;49.382;11.358;2023-03-05T04:13:29;96555.81;;;0.41;95.63
68197;BME280;55019;49.382;11.358;2023-03-05T04:15:55;96550.44;;;0.33;95.70
68197;BME280;55019;49.382;11.358;2023-03-05T04:18:20;96555.00;;;0.28;96.73
68197;BME280;55019;49.382;11.358;2023-03-05T04:20:46;96558.34;;;0.29;97.33
68197;BME280;55019;49.382;11.358;2023-03-05T04:23:12;96547.38;;;0.28;97.38
68197;BME280;55019;49.382;11.358;2023-03-05T04:25:38;96554.88;;;0.30;96.96
68197;BME280;55019;49.382;11.358;2023-03-05T04:28:04;96530.41;;;0.41;96.46
68197;BME280;55019;49.382;11.358;2023-03-05T04:30:30;96538.63;;;0.32;96.45
68197;BME280;55019;49.382;11.358;2023-03-05T04:32:56;96543.59;;;0.21;97.12
68197;BME280;55019;49.382;11.358;2023-03-05T04:35:22;96548.88;;;0.18;97.71
68197;BME280;55019;49.382;11.358;2023-03-05T04:37:48;96545.63;;;0.16;97.84
68197;BME280;55019;49.382;11.358;2023-03-05T04:40:14;96534.25;;;0.09;98.32
68197;BME280;55019;49.382;11.358;2023-03-05T04:42:40;96534.56;;;0.17;97.68
68197;BME280;55019;49.382;11.358;2023-03-05T04:45:06;96535.66;;;0.13;98.21
68197;BME280;55019;49.382;11.358;2023-03-05T04:47:33;96542.31;;;0.28;98.19
68197;BME280;55019;49.382;11.358;2023-03-05T04:49:59;96533.06;;;0.27;97.35
68197;BME280;55019;49.382;11.358;2023-03-05T04:52:24;96539.84;;;0.39;97.11
68197;BME280;55019;49.382;11.358;2023-03-05T04:54:50;96539.94;;;0.38;96.66
68197;BME280;55019;49.382;11.358;2023-03-05T04:57:16;96541.16;;;0.45;96.48
68197;BME280;55019;49.382;11.358;2023-03-05T04:59:42;96534.94;;;0.49;95.95
68197;BME280;55019;49.382;11.358;2023-03-05T05:02:08;96525.75;;;0.71;94.96
68197;BME280;55019;49.382;11.358;2023-03-05T05:04:33;96522.16;;;0.50;95.27
68197;BME280;55019;49.382;11.358;2023-03-05T05:07:00;96526.09;;;0.67;95.20
68197;BME280;55019;49.382;11.358;2023-03-05T05:09:26;96531.69;;;0.59;94.33
68197;BME280;55019;49.382;11.358;2023-03-05T05:11:52;96522.34;;;0.35;95.08
68197;BME280;55019;49.382;11.358;2023-03-05T05:14:18;96530.47;;;0.65;95.21
68197;BME280;55019;49.382;11.358;2023-03-05T05:16:44;96518.06;;;0.48;94.14
68197;BME280;55019;49.382;11.358;2023-03-05T05:19:10;96519.53;;;0.39;94.87
68197;BME280;55019;49.382;11.358;2023-03-05T05:21:36;96516.88;;;0.16;96.14
68197;BME280;55019;49.382;11.358;2023-03-05T05:24:02;96522.97;;;0.26;95.60
68197;BME280;55019;49.382;11.358;2023-03-05T05:26:28;96522.56;;;0.32;96.18
68197;BME280;55019;49.382;11.358;2023-03-05T05:28:54;96512.91;;;0.37;95.76
68197;BME280;55019;49.382;11.358;2023-03-05T05:31:20;96530.59;;;0.38;96.11
68197;BME280;55019;49.382;11.358;2023-03-05T05:33:46;96527.22;;;0.38;95.53
68197;BME280;55019;49.382;11.358;2023-03-05T05:36:14;96533.03;;;0.52;95.06
68197;BME280;55019;49.382;11.358;2023-03-05T05:38:40;96510.34;;;0.49;95.38
68197;BME280;55019;49.382;11.358;2023-03-05T05:41:09;96525.00;;;0.33;95.56
68197;BME280;55019;49.382;11.358;2023-03-05T05:43:35;96519.72;;;0.36;96.00
68197;BME280;55019;49.382;11.358;2023-03-05T05:46:04;96532.53;;;0.47;95.46
68197;BME280;55019;49.382;11.358;2023-03-05T05:48:31;96517.69;;;0.29;96.42
68197;BME280;55019;49.382;11.358;2023-03-05T05:50:58;96519.31;;;0.42;96.16
68197;BME280;55019;49.382;11.358;2023-03-05T05:53:24;96526.59;;;0.59;95.51
68197;BME280;55019;49.382;11.358;2023-03-05T05:55:50;96533.16;;;0.38;95.62
68197;BME280;55019;49.382;11.358;2023-03-05T05:58:17;96523.97;;;0.36;95.34
68197;BME280;55019;49.382;11.358;2023-03-05T06:00:43;96527.84;;;0.29;96.18
68197;BME280;55019;49.382;11.358;2023-03-05T06:03:09;96528.47;;;0.32;96.27
68197;BME280;55019;49.382;11.358;2023-03-05T06:05:34;96537.91;;;0.18;97.27
68197;BME280;55019;49.382;11.358;2023-03-05T06:08:00;96523.59;;;0.17;97.62
68197;BME280;55019;49.382;11.358;2023-03-05T06:10:26;96524.38;;;0.17;97.66
68197;BME280;55019;49.382;11.358;2023-03-05T06:12:52;96525.81;;;0.21;97.50
68197;BME280;55019;49.382;11.358;2023-03-05T06:15:17;96525.81;;;0.09;98.26
68197;BME280;55019;49.382;11.358;2023-03-05T06:17:44;96523.91;;;0.00;98.58
68197;BME280;55019;49.382;11.358;2023-03-05T06:20:12;96527.53;;;0.08;98.87
68197;BME280;55019;49.382;11.358;2023-03-05T06:22:38;96528.06;;;0.26;97.87
68197;BME280;55019;49.382;11.358;2023-03-05T06:25:06;96533.56;;;0.20;98.03
68197;BME280;55019;49.382;11.358;2023-03-05T06:27:33;96539.56;;;0.31;97.94
68197;BME280;55019;49.382;11.358;2023-03-05T06:29:59;96536.19;;;0.18;98.17
68197;BME280;55019;49.382;11.358;2023-03-05T06:32:25;96533.97;;;0.26;98.29
68197;BME280;55019;49.382;11.358;2023-03-05T06:34:51;96530.72;;;0.12;98.67
68197;BME280;55019;49.382;11.358;2023-03-05T06:37:17;96534.84;;;0.25;98.34
68197;BME280;55019;49.382;11.358;2023-03-05T06:39:43;96519.50;;;0.14;98.54
68197;BME280;55019;49.382;11.358;2023-03-05T06:42:09;96530.09;;;0.33;98.57
68197;BME280;55019;49.382;11.358;2023-03-05T06:44:40;96523.59;;;0.29;98.30
68197;BME280;55019;49.382;11.358;2023-03-05T06:47:06;96525.50;;;0.26;98.38
68197;BME280;55019;49.382;11.358;2023-03-05T06:49:33;96527.22;;;0.25;99.14
68197;BME280;55019;49.382;11.358;2023-03-05T06:51:59;96530.59;;;0.38;98.78
68197;BME280;55019;49.382;11.358;2023-03-05T06:54:26;96532.72;;;0.44;98.22
68197;BME280;55019;49.382;11.358;2023-03-05T06:56:52;96529.28;;;0.45;97.93
68197;BME280;55019;49.382;11.358;2023-03-05T06:59:17;96527.22;;;0.63;97.52
68197;BME280;55019;49.382;11.358;2023-03-05T07:01:44;96528.66;;;0.42;97.92
68197;BME280;55019;49.382;11.358;2023-03-05T07:04:11;96525.59;;;0.49;97.66
68197;BME280;55019;49.382;11.358;2023-03-05T07:06:37;96521.72;;;0.44;98.24
68197;BME280;55019;49.382;11.358;2023-03-05T07:09:04;96526.72;;;0.45;98.87
68197;BME280;55019;49.382;11.358;2023-03-05T07:11:31;96523.34;;;0.45;98.74
68197;BME280;55019;49.382;11.358;2023-03-05T07:13:58;96524.41;;;0.42;98.67
68197;BME280;55019;49.382;11.358;2023-03-05T07:16:26;96526.09;;;0.54;98.41
68197;BME280;55019;49.382;11.358;2023-03-05T07:18:53;96515.72;;;0.45;98.74
68197;BME280;55019;49.382;11.358;2023-03-05T07:21:23;96526.38;;;0.62;97.95
68197;BME280;55019;49.382;11.358;2023-03-05T07:23:51;96510.34;;;0.49;98.06
68197;BME280;55019;49.382;11.358;2023-03-05T07:26:17;96522.56;;;0.44;97.87
68197;BME280;55019;49.382;11.358;2023-03-05T07:28:43;96511.56;;;0.44;98.30
68197;BME280;55019;49.382;11.358;2023-03-05T07:31:14;96513.88;;;0.59;98.68
68197;BME280;55019;49.382;11.358;2023-03-05T07:33:41;96512.25;;;0.58;97.58
68197;BME280;55019;49.382;11.358;2023-03-05T07:36:08;96515.38;;;0.74;96.91
68197;BME280;55019;49.382;11.358;2023-03-05T07:38:34;96497.44;;;0.52;97.64
68197;BME280;55019;49.382;11.358;2023-03-05T07:41:11;96520.94;;;0.56;98.45
68197;BME280;55019;49.382;11.358;2023-03-05T07:43:41;96512.25;;;0.58;98.15
68197;BME280;55019;49.382;11.358;2023-03-05T07:46:10;96504.34;;;0.50;98.21
68197;BME280;55019;49.382;11.358;2023-03-05T07:48:37;96498.97;;;0.55;98.63
68197;BME280;55019;49.382;11.358;2023-03-05T07:51:09;96514.38;;;0.64;98.40
68197;BME280;55019;49.382;11.358;2023-03-05T07:53:35;96514.19;;;0.67;97.68
68197;BME280;55019;49.382;11.358;2023-03-05T07:56:01;96509.91;;;0.68;98.04
68197;BME280;55019;49.382;11.358;2023-03-05T07:58:26;96507.69;;;0.63;98.38
68197;BME280;55019;49.382;11.358;2023-03-05T08:01:02;96514.56;;;0.74;98.46
68197;BME280;55019;49.382;11.358;2023-03-05T08:03:28;96508.44;;;0.76;98.20
68197;BME280;55019;49.382;11.358;2023-03-05T08:05:54;96497.00;;;0.71;97.28
68197;BME280;55019;49.382;11.358;2023-03-05T08:08:20;96499.06;;;0.89;97.32
68197;BME280;55019;49.382;11.358;2023-03-05T08:10:45;96497.69;;;1.09;96.92
68197;BME280;55019;49.382;11.358;2023-03-05T08:13:11;96496.28;;;1.28;95.44
68197;BME280;55019;49.382;11.358;2023-03-05T08:15:37;96499.63;;;1.52;94.47
68197;BME280;55019;49.382;11.358;2023-03-05T08:18:03;96500.22;;;1.55;94.52
68197;BME280;55019;49.382;11.358;2023-03-05T08:20:29;96497.25;;;1.72;93.79
68197;BME280;55019;49.382;11.358;2023-03-05T08:22:55;96486.91;;;1.63;92.85
68197;BME280;55019;49.382;11.358;2023-03-05T08:25:21;96496.41;;;1.61;93.59
68197;BME280;55019;49.382;11.358;2023-03-05T08:27:47;96492.53;;;1.79;92.98
68197;BME280;55019;49.382;11.358;2023-03-05T08:30:17;96487.44;;;1.79;93.35
68197;BME280;55019;49.382;11.358;2023-03-05T08:32:43;96490.41;;;2.07;91.67
68197;BME280;55019;49.382;11.358;2023-03-05T08:35:09;96487.63;;;2.32;90.80
68197;BME280;55019;49.382;11.358;2023-03-05T08:40:22;96481.81;;;2.52;86.88
68197;BME280;55019;49.382;11.358;2023-03-05T08:42:47;96480.66;;;2.34;86.62
68197;BME280;55019;49.382;11.358;2023-03-05T08:45:13;96479.66;;;2.37;86.82
68197;BME280;55019;49.382;11.358;2023-03-05T08:47:39;96483.91;;;2.36;86.52
68197;BME280;55019;49.382;11.358;2023-03-05T08:50:05;96480.78;;;2.55;86.18
68197;BME280;55019;49.382;11.358;2023-03-05T08:52:31;96484.72;;;2.48;83.54
68197;BME280;55019;49.382;11.358;2023-03-05T08:54:56;96481.97;;;2.40;84.01
68197;BME280;55019;49.382;11.358;2023-03-05T08:57:22;96473.47;;;2.50;82.82
68197;BME280;55019;49.382;11.358;2023-03-05T08:59:48;96489.03;;;2.58;82.58
68197;BME280;55019;49.382;11.358;2023-03-05T09:02:14;96475.91;;;2.84;80.21
68197;BME280;55019;49.382;11.358;2023-03-05T09:04:40;96471.94;;;2.70;79.38
68197;BME280;55019;49.382;11.358;2023-03-05T09:07:06;96476.63;;;2.32;79.27
68197;BME280;55019;49.382;11.358;2023-03-05T09:09:31;96472.66;;;2.28;79.32
68197;BME280;55019;49.382;11.358;2023-03-05T09:11:58;96464.56;;;2.34;79.12
68197;BME280;55019;49.382;11.358;2023-03-05T09:14:24;96467.00;;;2.24;77.77
68197;BME280;55019;49.382;11.358;2023-03-05T09:16:53;96472.78;;;2.48;76.29
68197;BME280;55019;49.382;11.358;2023-03-05T09:19:19;96470.84;;;2.30;75.59
68197;BME280;55019;49.382;11.358;2023-03-05T09:21:44;96469.78;;;2.21;74.96
68197;BME280;55019;49.382;11.358;2023-03-05T09:24:10;96468.94;;;2.21;75.91
68197;BME280;55019;49.382;11.358;2023-03-05T09:26:36;96457.97;;;2.20;75.80
68197;BME280;55019;49.382;11.358;2023-03-05T09:29:05;96460.63;;;2.41;75.75
68197;BME280;55019;49.382;11.358;2023-03-05T09:31:51;96466.88;;;2.48;74.50
68197;BME280;55019;49.382;11.358;2023-03-05T09:34:17;96464.91;;;2.40;74.39
68197;BME280;55019;49.382;11.358;2023-03-05T09:36:43;96457.38;;;2.28;75.87
68197;BME280;55019;49.382;11.358;2023-03-05T09:39:09;96462.22;;;2.20;75.73
68197;BME280;55019;49.382;11.358;2023-03-05T09:41:54;96464.78;;;2.20;77.00
68197;BME280;55019;49.382;11.358;2023-03-05T09:47:59;96462.94;;;2.22;76.13
68197;BME280;55019;49.382;11.358;2023-03-05T09:53:49;96463.41;;;2.38;75.60
68197;BME280;55019;49.382;11.358;2023-03-05T09:55:54;96461.66;;;2.49;75.06
68197;BME280;55019;49.382;11.358;2023-03-05T09:58:30;96456.69;;;2.48;74.69
68197;BME280;55019;49.382;11.358;2023-03-05T10:01:05;96448.09;;;2.49;74.21
68197;BME280;55019;49.382;11.358;2023-03-05T10:06:24;96453.25;;;2.91;73.90
68197;BME280;55019;49.382;11.358;2023-03-05T10:09:03;96451.75;;;2.88;73.55
68197;BME280;55019;49.382;11.358;2023-03-05T10:11:52;96443.00;;;2.60;74.04
68197;BME280;55019;49.382;11.358;2023-03-05T10:14:37;96438.72;;;2.60;72.45
68197;BME280;55019;49.382;11.358;2023-03-05T10:17:09;96445.09;;;2.55;73.74
68197;BME280;55019;49.382;11.358;2023-03-05T10:24:55;96437.69;;;2.41;73.41
68197;BME280;55019;49.382;11.358;2023-03-05T10:30:26;96433.50;;;2.18;75.51
68197;BME280;55019;49.382;11.358;2023-03-05T10:33:09;96428.88;;;2.12;75.60
68197;BME280;55019;49.382;11.358;2023-03-05T10:44:29;96421.44;;;1.87;76.75
68197;BME280;55019;49.382;11.358;2023-03-05T10:46:58;96422.38;;;1.97;77.03
68197;BME280;55019;49.382;11.358;2023-03-05T10:49:30;96419.78;;;1.75;77.30
68197;BME280;55019;49.382;11.358;2023-03-05T10:54:30;96423.72;;;1.68;77.78
68197;BME280;55019;49.382;11.358;2023-03-05T10:57:15;96422.78;;;1.58;78.92
68197;BME280;55019;49.382;11.358;2023-03-05T11:02:18;96411.03;;;1.79;78.12
68197;BME280;55019;49.382;11.358;2023-03-05T11:04:44;96410.06;;;1.69;77.69
68197;BME280;55019;49.382;11.358;2023-03-05T11:12:33;96401.63;;;2.01;75.31
68197;BME280;55019;49.382;11.358;2023-03-05T11:17:42;96391.22;;;1.93;72.24
68197;BME280;55019;49.382;11.358;2023-03-05T11:25:54;96392.16;;;1.92;73.29
68197;BME280;55019;49.382;11.358;2023-03-05T11:29:13;96385.88;;;1.96;72.22
68197;BME280;55019;49.382;11.358;2023-03-05T11:34:02;96370.94;;;2.14;70.60
68197;BME280;55019;49.382;11.358;2023-03-05T11:36:35;96379.28;;;2.16;68.78
68197;BME280;55019;49.382;11.358;2023-03-05T11:41:34;96367.00;;;2.21;67.86
68197;BME280;55019;49.382;11.358;2023-03-05T11:44:03;96369.75;;;2.51;66.41
68197;BME280;55019;49.382;11.358;2023-03-05T11:46:40;96364.66;;;2.29;67.70
68197;BME280;55019;49.382;11.358;2023-03-05T11:49:07;96361.50;;;2.58;66.69
68197;BME280;55019;49.382;11.358;2023-03-05T11:51:47;96360.78;;;2.67;66.54
68197;BME280;55019;49.382;11.358;2023-03-05T11:54:21;96350.44;;;3.00;65.66
68197;BME280;55019;49.382;11.358;2023-03-05T11:56:50;96347.09;;;2.99;63.70
68197;BME280;55019;49.382;11.358;2023-03-05T11:59:28;96338.16;;;2.94;63.74
68197;BME280;55019;49.382;11.358;2023-03-05T12:01:56;96340.53;;;2.86;63.80
68197;BME280;55019;49.382;11.358;2023-03-05T12:04:23;96341.09;;;2.58;64.50
68197;BME280;55019;49.382;11.358;2023-03-05T12:07:02;96335.47;;;2.44;66.40
68197;BME280;55019;49.382;11.358;2023-03-05T12:09:36;96339.03;;;2.41;66.78
68197;BME280;55019;49.382;11.358;2023-03-05T12:12:29;96335.50;;;2.33;68.10
68197;BME280;55019;49.382;11.358;2023-03-05T12:17:38;96333.44;;;1.94;69.24
68197;BME280;55019;49.382;11.358;2023-03-05T12:22:39;96321.97;;;1.99;70.40
68197;BME280;55019;49.382;11.358;2023-03-05T12:25:44;96320.88;;;2.24;69.00
68197;BME280;55019;49.382;11.358;2023-03-05T12:31:04;96306.63;;;2.32;68.47
68197;BME280;55019;49.382;11.358;2023-03-05T12:33:36;96302.47;;;2.63;66.30
68197;BME280;55019;49.382;11.358;2023-03-05T12:38:48;96283.28;;;2.48;64.94
68197;BME280;55019;49.382;11.358;2023-03-05T12:44:08;96290.44;;;2.85;63.04
68197;BME280;55019;49.382;11.358;2023-03-05T12:46:35;96287.78;;;2.86;63.65
68197;BME280;55019;49.382;11.358;2023-03-05T12:51:43;96271.88;;;2.63;62.25
68197;BME280;55019;49.382;11.358;2023-03-05T12:56:56;96275.84;;;2.56;62.52
68197;BME280;55019;49.382;11.358;2023-03-05T12:59:27;96270.00;;;2.65;61.92
68197;BME280;55019;49.382;11.358;2023-03-05T13:01:57;96276.56;;;2.47;62.96
68197;BME280;55019;49.382;11.358;2023-03-05T13:04:29;96275.84;;;2.56;62.89
68197;BME280;55019;49.382;11.358;2023-03-05T13:07:05;96259.44;;;2.38;63.11
68197;BME280;55019;49.382;11.358;2023-03-05T13:09:38;96275.69;;;2.37;63.34
68197;BME280;55019;49.382;11.358;2023-03-05T13:12:11;96264.31;;;2.41;62.24
68197;BME280;55019;49.382;11.358;2023-03-05T13:14:44;96270.81;;;2.34;62.00
68197;BME280;55019;49.382;11.358;2023-03-05T13:17:26;96258.72;;;2.47;62.18
68197;BME280;55019;49.382;11.358;2023-03-05T13:19:54;96262.63;;;2.51;61.12
68197;BME280;55019;49.382;11.358;2023-03-05T13:22:20;96262.88;;;2.48;61.19
68197;BME280;55019;49.382;11.358;2023-03-05T13:24:45;96256.91;;;2.38;62.63
68197;BME280;55019;49.382;11.358;2023-03-05T13:27:20;96254.34;;;2.38;61.12
68197;BME280;55019;49.382;11.358;2023-03-05T13:29:51;96250.19;;;2.37;61.92
68197;BME280;55019;49.382;11.358;2023-03-05T13:32:36;96249.94;;;2.40;61.94
68197;BME280;55019;49.382;11.358;2023-03-05T13:35:01;96250.13;;;2.48;63.03
68197;BME280;55019;49.382;11.358;2023-03-05T13:37:30;96257.28;;;2.22;63.57
68197;BME280;55019;49.382;11.358;2023-03-05T13:40:03;96254.66;;;2.44;63.19
68197;BME280;55019;49.382;11.358;2023-03-05T13:42:40;96248.22;;;2.61;62.19
68197;BME280;55019;49.382;11.358;2023-03-05T13:45:20;96239.63;;;2.62;62.87
68197;BME280;55019;49.382;11.358;2023-03-05T13:48:05;96243.13;;;2.61;63.34
68197;BME280;55019;49.382;11.358;2023-03-05T13:50:34;96245.19;;;2.67;62.71
68197;BME280;55019;49.382;11.358;2023-03-05T13:53:17;96233.31;;;2.45;63.42
68197;BME280;55019;49.382;11.358;2023-03-05T13:55:45;96233.47;;;2.44;63.90
68197;BME280;55019;49.382;11.358;2023-03-05T13:58:50;96238.38;;;2.25;63.80
68197;BME280;55019;49.382;11.358;2023-03-05T14:01:31;96240.69;;;2.28;65.29
68197;BME280;55019;49.382;11.358;2023-03-05T14:04:19;96227.63;;;2.53;64.14
68197;BME280;55019;49.382;11.358;2023-03-05T14:07:00;96229.53;;;2.40;63.71
68197;BME280;55019;49.382;11.358;2023-03-05T14:09:44;96224.63;;;2.48;63.69
68197;BME280;55019;49.382;11.358;2023-03-05T14:12:40;96222.03;;;2.59;63.85
68197;BME280;55019;49.382;11.358;2023-03-05T14:17:51;96218.50;;;2.71;64.26
68197;BME280;55019;49.382;11.358;2023-03-05T14:22:49;96210.81;;;2.50;64.89
68197;BME280;55019;49.382;11.358;2023-03-05T14:28:01;96211.22;;;2.66;64.96
68197;BME280;55019;49.382;11.358;2023-03-05T14:30:27;96206.03;;;2.57;64.53
68197;BME280;55019;49.382;11.358;2023-03-05T14:32:55;96199.81;;;2.50;64.91
68197;BME280;55019;49.382;11.358;2023-03-05T14:35:24;96186.00;;;2.32;64.82